createdAt,value
2017-12-02T00:00:30.802Z,93.06
2017-12-02T00:02:59.411Z,92.99
2017-12-02T00:05:28.041Z,92.94
2017-12-02T00:07:56.714Z,92.93
2017-12-02T00:10:25.322Z,92.93
2017-12-02T00:12:53.927Z,92.93
2017-12-02T00:15:22.604Z,92.99
2017-12-02T00:17:51.471Z,93.00
2017-12-02T00:20:19.843Z,93.00
2017-12-02T00:22:48.559Z,92.96
2017-12-02T00:25:17.177Z,92.93
2017-12-02T00:27:45.790Z,92.91
2017-12-02T00:30:14.446Z,92.90
2017-12-02T00:32:43.078Z,92.92
2017-12-02T00:35:11.819Z,92.93
2017-12-02T00:37:40.477Z,92.96
2017-12-02T00:40:09.112Z,92.97
2017-12-02T00:42:37.920Z,92.93
2017-12-02T00:45:06.414Z,92.92
2017-12-02T00:47:37.974Z,92.92
2017-12-02T00:50:20.538Z,92.93
2017-12-02T00:52:58.949Z,92.93
2017-12-02T00:55:38.590Z,92.90
2017-12-02T00:58:23.507Z,93.00
2017-12-02T01:01:03.089Z,92.95
2017-12-02T01:03:42.902Z,92.92
2017-12-02T01:06:32.105Z,92.90
2017-12-02T01:11:57.198Z,92.88
2017-12-02T01:14:36.902Z,92.88
2017-12-02T01:17:17.831Z,92.86
2017-12-02T01:19:58.470Z,92.92
2017-12-02T01:22:42.048Z,92.91
2017-12-02T01:25:22.701Z,92.91
2017-12-02T01:28:03.384Z,92.97
2017-12-02T01:30:39.765Z,92.93
2017-12-02T01:33:08.974Z,92.94
2017-12-02T01:35:39.260Z,92.90
2017-12-02T01:38:08.009Z,92.90
2017-12-02T01:40:36.835Z,92.86
2017-12-02T01:43:05.564Z,92.86
2017-12-02T01:45:34.182Z,92.86
2017-12-02T01:48:02.833Z,92.86
2017-12-02T01:50:31.489Z,92.89
2017-12-02T01:53:00.103Z,92.89
2017-12-02T01:55:28.762Z,92.90
2017-12-02T01:57:57.513Z,92.90
2017-12-02T02:00:25.641Z,92.88
2017-12-02T02:02:54.304Z,92.88
2017-12-02T02:05:22.947Z,92.85
2017-12-02T02:07:51.681Z,92.85
2017-12-02T02:10:20.707Z,92.86
2017-12-02T02:12:49.338Z,92.84
2017-12-02T02:15:17.964Z,92.88
2017-12-02T02:17:46.650Z,92.84
2017-12-02T02:20:15.257Z,92.84
2017-12-02T02:22:44.343Z,92.87
2017-12-02T02:25:12.758Z,92.83
2017-12-02T02:27:41.390Z,92.80
2017-12-02T02:30:10.010Z,92.80
2017-12-02T02:32:38.669Z,92.86
2017-12-02T02:35:07.281Z,92.81
2017-12-02T02:37:35.903Z,92.82
2017-12-02T02:40:04.629Z,92.79
2017-12-02T02:42:33.258Z,92.74
2017-12-02T02:45:01.866Z,92.79
2017-12-02T02:47:30.534Z,92.85
2017-12-02T02:49:59.145Z,92.89
2017-12-02T02:52:27.778Z,92.85
2017-12-02T02:54:56.440Z,92.83
2017-12-02T02:57:25.078Z,92.81
2017-12-02T02:59:53.569Z,92.80
2017-12-02T03:02:22.234Z,92.81
2017-12-02T03:04:50.882Z,92.77
2017-12-02T03:07:19.514Z,92.81
2017-12-02T03:09:47.901Z,92.78
2017-12-02T03:12:16.237Z,92.74
2017-12-02T03:14:44.585Z,92.73
2017-12-02T03:17:12.960Z,92.70
2017-12-02T03:19:41.337Z,92.72
2017-12-02T03:22:09.697Z,92.75
2017-12-02T03:24:38.022Z,92.75
2017-12-02T03:27:06.399Z,92.77
2017-12-02T03:29:34.979Z,92.76
2017-12-02T03:32:03.319Z,92.73
2017-12-02T03:34:32.019Z,92.76
2017-12-02T03:37:00.344Z,92.73
2017-12-02T03:39:28.725Z,92.72
2017-12-02T03:41:57.062Z,92.67
2017-12-02T03:44:25.700Z,92.70
2017-12-02T03:46:53.941Z,92.68
2017-12-02T03:49:22.175Z,92.62
2017-12-02T03:51:50.550Z,92.67
2017-12-02T03:54:18.893Z,92.58
2017-12-02T03:56:47.582Z,92.61
2017-12-02T03:59:16.095Z,92.61
2017-12-02T04:01:44.763Z,92.54
2017-12-02T04:04:13.023Z,92.54
2017-12-02T04:06:41.375Z,92.54
2017-12-02T04:09:11.127Z,92.54
2017-12-02T04:11:39.857Z,92.55
2017-12-02T04:14:08.050Z,92.57
2017-12-02T04:16:36.238Z,92.60
2017-12-02T04:19:04.521Z,92.63
2017-12-02T04:21:33.215Z,92.60
2017-12-02T04:24:01.410Z,92.67
2017-12-02T04:26:30.146Z,92.69
2017-12-02T04:28:58.501Z,92.67
2017-12-02T04:31:27.089Z,92.68
2017-12-02T04:33:55.442Z,92.72
2017-12-02T04:36:23.779Z,92.71
2017-12-02T04:38:52.153Z,92.70
2017-12-02T04:41:20.861Z,92.74
2017-12-02T04:43:49.531Z,92.70
2017-12-02T04:46:17.970Z,92.77
2017-12-02T04:48:46.320Z,92.77
2017-12-02T04:51:14.691Z,92.80
2017-12-02T04:53:43.013Z,92.77
2017-12-02T04:56:13.897Z,92.69
2017-12-02T04:58:42.273Z,92.76
2017-12-02T05:01:10.597Z,92.76
2017-12-02T05:03:39.342Z,92.80
2017-12-02T05:06:11.239Z,92.77
2017-12-02T05:08:39.941Z,92.79
2017-12-02T05:11:08.263Z,92.76
2017-12-02T05:13:36.594Z,92.72
2017-12-02T05:16:04.979Z,92.73
2017-12-02T05:18:33.685Z,92.78
2017-12-02T05:21:02.352Z,92.78
2017-12-02T05:23:30.728Z,92.74
2017-12-02T05:25:59.044Z,92.68
2017-12-02T05:28:27.384Z,92.72
2017-12-02T05:30:56.104Z,92.68
2017-12-02T05:33:24.493Z,92.71
2017-12-02T05:35:52.825Z,92.68
2017-12-02T05:38:21.150Z,92.69
2017-12-02T05:40:49.525Z,92.63
2017-12-02T05:43:17.863Z,92.61
2017-12-02T05:45:46.186Z,92.60
2017-12-02T05:48:14.885Z,92.63
2017-12-02T05:50:43.525Z,92.63
2017-12-02T05:53:11.901Z,92.65
2017-12-02T05:55:40.222Z,92.66
2017-12-02T05:58:08.634Z,92.64
2017-12-02T06:00:37.001Z,92.64
2017-12-02T06:03:05.362Z,92.62
2017-12-02T06:05:33.782Z,92.64
2017-12-02T06:08:02.118Z,92.63
2017-12-02T06:10:30.446Z,92.60
2017-12-02T06:12:58.830Z,92.58
2017-12-02T06:15:27.206Z,92.56
2017-12-02T06:17:55.890Z,92.53
2017-12-02T06:20:24.531Z,92.58
2017-12-02T06:22:53.239Z,92.54
2017-12-02T06:25:21.618Z,92.54
2017-12-02T06:27:50.260Z,92.60
2017-12-02T06:30:18.634Z,92.60
2017-12-02T06:32:46.967Z,92.54
2017-12-02T06:35:15.653Z,92.59
2017-12-02T06:37:43.990Z,92.57
2017-12-02T06:40:12.371Z,92.54
2017-12-02T06:42:41.025Z,92.58
2017-12-02T06:45:09.722Z,92.62
2017-12-02T06:47:38.274Z,92.51
2017-12-02T06:50:06.642Z,92.54
2017-12-02T06:52:35.357Z,92.52
2017-12-02T06:55:03.686Z,92.48
2017-12-02T06:57:32.009Z,92.56
2017-12-02T07:00:00.797Z,92.49
2017-12-02T07:02:29.310Z,92.44
2017-12-02T07:04:57.522Z,92.53
2017-12-02T07:07:25.766Z,92.48
2017-12-02T07:09:54.287Z,92.52
2017-12-02T07:12:22.790Z,92.48
2017-12-02T07:14:51.058Z,92.56
2017-12-02T07:17:19.333Z,92.55
2017-12-02T07:19:48.399Z,92.46
2017-12-02T07:22:16.658Z,92.48
2017-12-02T07:24:44.849Z,92.48
2017-12-02T07:27:13.094Z,92.49
2017-12-02T07:29:41.725Z,92.47
2017-12-02T07:32:10.085Z,92.48
2017-12-02T07:34:38.807Z,92.50
2017-12-02T07:37:08.398Z,92.49
2017-12-02T07:39:37.558Z,92.54
2017-12-02T07:42:05.790Z,92.61
2017-12-02T07:44:34.327Z,92.58
2017-12-02T07:47:03.660Z,92.57
2017-12-02T07:49:33.094Z,92.57
2017-12-02T07:52:03.878Z,92.52
2017-12-02T07:54:32.430Z,92.55
2017-12-02T07:57:17.529Z,92.66
2017-12-02T07:59:48.150Z,92.57
2017-12-02T08:02:16.956Z,92.68
2017-12-02T08:04:45.609Z,92.61
2017-12-02T08:07:14.294Z,92.66
2017-12-02T08:09:43.038Z,92.63
2017-12-02T08:12:12.385Z,92.63
2017-12-02T08:14:40.725Z,92.63
2017-12-02T08:17:13.757Z,92.66
2017-12-02T08:19:42.407Z,92.63
2017-12-02T08:22:14.321Z,92.66
2017-12-02T08:24:43.030Z,92.63
2017-12-02T08:27:12.397Z,92.61
2017-12-02T08:29:40.780Z,92.68
2017-12-02T08:32:09.220Z,92.64
2017-12-02T08:34:37.598Z,92.68
2017-12-02T08:37:06.113Z,92.70
2017-12-02T08:39:41.997Z,92.69
2017-12-02T08:42:17.919Z,92.68
2017-12-02T08:44:53.778Z,92.74
2017-12-02T08:47:29.094Z,92.70
2017-12-02T08:50:02.073Z,92.72
2017-12-02T08:52:35.936Z,92.78
2017-12-02T08:55:18.543Z,92.78
2017-12-02T08:58:05.147Z,92.82
2017-12-02T09:00:46.552Z,92.86
2017-12-02T09:03:26.264Z,92.93
2017-12-02T09:06:11.060Z,92.96
2017-12-02T09:08:50.868Z,93.12
2017-12-02T09:11:31.767Z,93.11
2017-12-02T09:14:01.809Z,93.15
2017-12-02T09:16:30.977Z,93.20
2017-12-02T09:19:00.438Z,93.30
2017-12-02T09:21:30.801Z,93.25
2017-12-02T09:24:01.078Z,93.27
2017-12-02T09:26:30.068Z,93.31
2017-12-02T09:28:59.113Z,93.26
2017-12-02T09:31:27.485Z,93.34
2017-12-02T09:33:55.881Z,93.33
2017-12-02T09:36:24.223Z,93.31
2017-12-02T09:38:52.871Z,93.33
2017-12-02T09:41:21.266Z,93.25
2017-12-02T09:43:50.078Z,93.26
2017-12-02T09:46:29.235Z,93.33
2017-12-02T09:49:07.462Z,93.31
2017-12-02T09:51:50.026Z,93.31
2017-12-02T09:54:27.020Z,93.23
2017-12-02T09:56:55.844Z,93.28
2017-12-02T09:59:24.653Z,93.37
2017-12-02T10:01:53.943Z,93.37
2017-12-02T10:04:22.137Z,93.33
2017-12-02T10:09:38.066Z,93.24
2017-12-02T10:12:07.706Z,93.18
2017-12-02T10:14:38.115Z,93.25
2017-12-02T10:17:08.953Z,93.26
2017-12-02T10:19:42.725Z,93.25
2017-12-02T10:22:16.475Z,93.31
2017-12-02T10:24:48.945Z,93.33
2017-12-02T10:27:23.132Z,93.31
2017-12-02T10:29:52.197Z,93.47
2017-12-02T10:32:27.320Z,93.34
2017-12-02T10:34:57.662Z,93.33
2017-12-02T10:37:31.253Z,93.30
2017-12-02T10:40:02.923Z,93.44
2017-12-02T10:42:31.833Z,93.39
2017-12-02T10:45:04.785Z,93.28
2017-12-02T10:47:38.907Z,93.36
2017-12-02T10:50:07.868Z,93.34
2017-12-02T10:52:36.713Z,93.45
2017-12-02T10:55:17.358Z,93.42
2017-12-02T10:58:03.358Z,93.54
2017-12-02T11:00:42.863Z,93.59
2017-12-02T11:03:20.050Z,93.48
2017-12-02T11:06:00.630Z,93.44
2017-12-02T11:08:29.878Z,93.46
2017-12-02T11:11:07.241Z,93.50
2017-12-02T11:13:36.487Z,93.35
2017-12-02T11:16:14.304Z,93.19
